Time;durP1;ratioP1;P1;durP2;ratioP2;P2;SDS_P1;SDS_P2;PMS_P1;PMS_P2;Temp;Humidity;BMP_temperature;BMP_pressure;BME280_temperature;BME280_humidity;BME280_pressure;Samples;Min_cycle;Max_cycle;Signal;HPM_P1;HPM_P2
2021/04/10 00:01:21;;;;;;;9.60;2.67;;;6.40;99.90;;;;;;5009263;28;20286;-83
2021/04/10 00:03:47;;;;;;;7.37;2.47;;;6.50;99.90;;;;;;5009294;28;20199;-84
2021/04/10 00:06:14;;;;;;;12.07;4.83;;;6.40;99.90;;;;;;5009683;28;20206;-84
2021/04/10 00:08:41;;;;;;;9.10;2.77;;;6.40;99.90;;;;;;5008989;28;20203;-82
2021/04/10 00:11:07;;;;;;;13.07;2.67;;;6.40;99.90;;;;;;5009228;28;20203;-83
2021/04/10 00:13:34;;;;;;;9.63;2.93;;;6.50;99.90;;;;;;5007118;28;20622;-83
2021/04/10 00:16:00;;;;;;;11.23;2.20;;;6.40;99.90;;;;;;5004975;28;20215;-82
2021/04/10 00:18:27;;;;;;;14.27;3.27;;;6.40;99.90;;;;;;5006387;28;20615;-82
2021/04/10 00:20:54;;;;;;;11.93;2.70;;;6.40;99.90;;;;;;5005936;28;20250;-80
2021/04/10 00:23:20;;;;;;;15.33;3.77;;;6.40;99.90;;;;;;5005452;28;20608;-84
2021/04/10 00:25:46;;;;;;;7.60;2.10;;;6.30;99.90;;;;;;5007174;28;20253;-85
2021/04/10 00:28:12;;;;;;;8.03;2.40;;;6.40;99.90;;;;;;5009441;28;20838;-82
2021/04/10 00:30:39;;;;;;;11.97;4.10;;;6.40;99.90;;;;;;5008640;28;20203;-84
2021/04/10 00:33:05;;;;;;;9.27;2.50;;;6.40;99.90;;;;;;5008270;28;20571;-84
2021/04/10 00:35:33;;;;;;;8.70;2.23;;;6.30;99.90;;;;;;5008178;28;20261;-83
2021/04/10 00:37:59;;;;;;;6.93;2.30;;;6.20;99.90;;;;;;5008509;28;20196;-83
2021/04/10 00:40:27;;;;;;;7.27;2.27;;;6.30;99.90;;;;;;5007904;28;20242;-83
2021/04/10 00:42:53;;;;;;;7.30;2.80;;;6.30;99.90;;;;;;5008117;28;20203;-81
2021/04/10 00:45:20;;;;;;;9.67;2.60;;;6.20;99.90;;;;;;5008375;28;20666;-83
2021/04/10 00:47:46;;;;;;;7.10;2.37;;;6.20;99.90;;;;;;5006753;28;20230;-84
2021/04/10 00:50:13;;;;;;;8.93;2.37;;;6.20;99.90;;;;;;5007967;28;20199;-82
2021/04/10 00:52:42;;;;;;;8.80;2.73;;;6.20;99.90;;;;;;5007997;28;20247;-82
2021/04/10 00:55:10;;;;;;;11.37;2.90;;;6.20;99.90;;;;;;5008039;28;20226;-83
2021/04/10 00:57:37;;;;;;;10.20;2.60;;;6.20;99.90;;;;;;5007105;28;20205;-83
2021/04/10 01:00:05;;;;;;;4.30;2.10;;;6.20;99.90;;;;;;4989080;28;20235;-83
2021/04/10 01:02:31;;;;;;;9.80;2.43;;;6.20;99.90;;;;;;4988910;28;20207;-83
2021/04/10 01:04:58;;;;;;;6.43;2.10;;;6.20;99.90;;;;;;4987051;28;20208;-83
2021/04/10 01:07:24;;;;;;;7.60;2.60;;;6.20;99.90;;;;;;4996251;28;20210;-83
2021/04/10 01:09:53;;;;;;;7.27;2.20;;;6.20;99.90;;;;;;5006949;28;20207;-83
2021/04/10 01:12:35;;;;;;;5.83;1.83;;;6.20;99.90;;;;;;5005830;28;20210;-82
2021/04/10 01:15:18;;;;;;;6.90;2.10;;;6.20;99.90;;;;;;5001766;28;20207;-84
2021/04/10 01:17:48;;;;;;;8.13;2.27;;;6.20;99.90;;;;;;5001834;28;20310;-82
2021/04/10 01:20:42;;;;;;;6.90;1.90;;;6.20;99.90;;;;;;5001912;28;20239;-83
2021/04/10 01:23:46;;;;;;;5.93;2.10;;;6.20;99.90;;;;;;4992774;28;20212;-80
2021/04/10 01:26:28;;;;;;;7.30;2.07;;;6.20;99.90;;;;;;4982834;28;20207;-79
2021/04/10 01:29:01;;;;;;;5.77;1.87;;;6.20;99.90;;;;;;5002340;28;20203;-81
2021/04/10 01:31:38;;;;;;;5.40;2.63;;;6.20;99.90;;;;;;5002719;28;20214;-80
2021/04/10 01:34:08;;;;;;;6.03;1.97;;;6.10;99.90;;;;;;5007268;28;20226;-79
2021/04/10 01:36:37;;;;;;;6.47;2.63;;;6.10;99.90;;;;;;5008010;28;20519;-78
2021/04/10 01:39:07;;;;;;;7.13;2.10;;;6.10;99.90;;;;;;5006167;28;20278;-79
2021/04/10 01:41:35;;;;;;;8.17;2.47;;;6.10;99.90;;;;;;5007660;28;20269;-80
2021/04/10 01:44:02;;;;;;;7.60;2.43;;;6.10;99.90;;;;;;5006430;28;20234;-79
2021/04/10 01:46:31;;;;;;;5.67;1.87;;;6.10;99.90;;;;;;5006337;28;20565;-80
2021/04/10 01:48:59;;;;;;;8.47;2.60;;;6.20;99.90;;;;;;5006235;28;20203;-80
2021/04/10 01:51:27;;;;;;;4.73;1.73;;;6.20;99.90;;;;;;5007696;28;20292;-80
2021/04/10 01:53:54;;;;;;;8.53;2.07;;;6.20;99.90;;;;;;5007648;28;20207;-79
2021/04/10 01:56:21;;;;;;;8.53;2.10;;;6.20;99.90;;;;;;5006674;28;20211;-79
2021/04/10 01:58:48;;;;;;;8.10;1.93;;;6.20;99.90;;;;;;5006984;28;20219;-79
2021/04/10 02:01:17;;;;;;;6.77;1.70;;;6.20;99.90;;;;;;5007107;28;20218;-82
2021/04/10 02:03:45;;;;;;;8.60;2.43;;;6.10;99.90;;;;;;5005961;28;20269;-79
2021/04/10 02:06:13;;;;;;;7.27;2.03;;;6.10;99.90;;;;;;5007872;28;20203;-83
2021/04/10 02:08:41;;;;;;;7.17;2.03;;;6.20;99.90;;;;;;5008876;28;20207;-82
2021/04/10 02:11:09;;;;;;;6.90;1.93;;;6.20;99.90;;;;;;5008624;28;20218;-82
2021/04/10 02:13:36;;;;;;;6.33;1.73;;;6.20;99.90;;;;;;5009888;28;20862;-79
2021/04/10 02:16:03;;;;;;;9.33;3.17;;;6.20;99.90;;;;;;5006251;28;20620;-78
2021/04/10 02:18:31;;;;;;;6.00;1.67;;;6.20;99.90;;;;;;5007189;28;20257;-82
2021/04/10 02:21:00;;;;;;;4.73;1.83;;;6.10;99.90;;;;;;5006789;28;20212;-79
2021/04/10 02:23:26;;;;;;;4.80;1.53;;;6.10;99.90;;;;;;5009160;28;20238;-81
2021/04/10 02:25:53;;;;;;;9.73;2.03;;;6.20;99.90;;;;;;4998820;28;20214;-81
2021/04/10 02:28:19;;;;;;;5.50;2.03;;;6.10;99.90;;;;;;4989237;28;20207;-82
2021/04/10 02:30:45;;;;;;;8.13;2.07;;;6.10;99.90;;;;;;4989952;28;20212;-83
2021/04/10 02:33:17;;;;;;;7.73;2.27;;;6.10;99.90;;;;;;4989942;28;20193;-83
2021/04/10 02:35:50;;;;;;;8.37;1.93;;;6.20;99.90;;;;;;4999235;28;20261;-80
2021/04/10 02:38:19;;;;;;;5.87;2.03;;;6.10;99.90;;;;;;5005122;28;20289;-80
2021/04/10 02:40:50;;;;;;;5.70;1.97;;;6.10;99.90;;;;;;5005926;28;20507;-78
2021/04/10 02:43:22;;;;;;;6.80;2.40;;;6.10;99.90;;;;;;5005739;28;20208;-79
2021/04/10 02:45:52;;;;;;;5.73;1.87;;;6.10;99.90;;;;;;5005862;28;20287;-80
2021/04/10 02:48:23;;;;;;;7.27;2.17;;;6.10;99.90;;;;;;5005460;28;20211;-82
2021/04/10 02:50:54;;;;;;;10.20;2.27;;;6.10;99.90;;;;;;5006594;28;20206;-81
2021/04/10 02:53:22;;;;;;;11.10;2.80;;;6.10;99.90;;;;;;5007785;28;20203;-82
2021/04/10 02:55:53;;;;;;;8.50;2.43;;;6.10;99.90;;;;;;5006826;28;20211;-82
2021/04/10 02:58:22;;;;;;;8.47;2.03;;;6.10;99.90;;;;;;5006551;28;20506;-83
2021/04/10 03:00:49;;;;;;;5.00;2.10;;;6.10;99.90;;;;;;4991941;28;20215;-82
2021/04/10 03:03:16;;;;;;;4.90;2.00;;;6.10;99.90;;;;;;4985455;28;20200;-83
2021/04/10 03:05:45;;;;;;;8.67;2.13;;;6.10;99.90;;;;;;4985327;28;20207;-83
2021/04/10 03:08:16;;;;;;;9.43;2.27;;;6.10;99.90;;;;;;4997081;28;20234;-85
2021/04/10 03:10:45;;;;;;;5.23;2.00;;;6.10;99.90;;;;;;5008634;28;20649;-84
2021/04/10 03:13:13;;;;;;;4.80;1.80;;;6.10;99.90;;;;;;5010293;28;20866;-82
2021/04/10 03:15:40;;;;;;;6.13;2.17;;;6.00;99.90;;;;;;5010819;28;20203;-79
2021/04/10 03:18:10;;;;;;;10.17;2.33;;;6.00;99.90;;;;;;5009182;28;20215;-84
2021/04/10 03:20:36;;;;;;;6.90;2.50;;;6.10;99.90;;;;;;4992798;28;20243;-83
2021/04/10 03:23:03;;;;;;;5.03;1.73;;;6.10;99.90;;;;;;4991112;28;20223;-84
2021/04/10 03:25:31;;;;;;;5.97;2.00;;;6.10;99.90;;;;;;4989458;28;20219;-84
2021/04/10 03:27:57;;;;;;;5.30;2.10;;;6.00;99.90;;;;;;5010246;28;20207;-82
2021/04/10 03:30:24;;;;;;;7.80;2.37;;;6.00;99.90;;;;;;5010045;28;20207;-83
2021/04/10 03:32:51;;;;;;;11.77;2.73;;;6.00;99.90;;;;;;5008943;28;20203;-83
2021/04/10 03:35:17;;;;;;;9.07;3.57;;;6.00;99.90;;;;;;5008628;28;20219;-84
2021/04/10 03:37:44;;;;;;;5.17;2.50;;;6.00;99.90;;;;;;5009385;28;20625;-84
2021/04/10 03:40:12;;;;;;;8.17;2.00;;;6.00;99.90;;;;;;5008964;28;20926;-84
2021/04/10 03:42:41;;;;;;;7.60;2.20;;;5.90;99.90;;;;;;5007504;28;20214;-82
2021/04/10 03:45:10;;;;;;;8.47;1.93;;;5.90;99.90;;;;;;5009657;28;20694;-82
2021/04/10 03:47:36;;;;;;;6.70;2.30;;;5.90;99.90;;;;;;5008317;28;20212;-83
2021/04/10 03:50:03;;;;;;;6.20;1.90;;;5.90;99.90;;;;;;5008837;28;20204;-82
2021/04/10 03:52:30;;;;;;;10.40;2.53;;;5.90;99.90;;;;;;5008141;28;20560;-83
2021/04/10 03:54:56;;;;;;;10.63;2.50;;;5.90;99.90;;;;;;5010048;28;20214;-83
2021/04/10 03:57:22;;;;;;;6.63;2.03;;;5.90;99.90;;;;;;5009088;28;20210;-83
2021/04/10 03:59:49;;;;;;;5.93;1.80;;;6.00;99.90;;;;;;5009334;28;20223;-83
2021/04/10 04:02:16;;;;;;;6.93;1.93;;;6.00;99.90;;;;;;5009344;28;20226;-82
2021/04/10 04:04:42;;;;;;;10.93;2.53;;;6.00;99.90;;;;;;5008436;28;20202;-83
2021/04/10 04:07:09;;;;;;;10.13;2.20;;;6.00;99.90;;;;;;5002066;28;20203;-81
2021/04/10 04:09:36;;;;;;;10.50;1.97;;;6.00;99.90;;;;;;4986921;28;20196;-82
2021/04/10 04:12:03;;;;;;;11.50;3.43;;;6.00;99.90;;;;;;4987254;28;20228;-79
2021/04/10 04:14:30;;;;;;;6.60;2.37;;;6.10;99.90;;;;;;5001745;28;20586;-81
2021/04/10 04:16:57;;;;;;;6.53;2.00;;;6.10;99.90;;;;;;5003605;28;20253;-83
2021/04/10 04:19:23;;;;;;;7.43;2.00;;;6.10;99.90;;;;;;5009155;28;20419;-84
2021/04/10 04:21:49;;;;;;;6.13;1.60;;;6.00;99.90;;;;;;5008880;28;20207;-84
2021/04/10 04:24:16;;;;;;;4.07;1.57;;;5.90;99.90;;;;;;5009027;28;20226;-84
2021/04/10 04:26:42;;;;;;;5.63;1.40;;;5.90;99.90;;;;;;5009332;28;20838;-83
2021/04/10 04:29:08;;;;;;;6.63;1.50;;;6.00;99.90;;;;;;5009367;28;20265;-84
2021/04/10 04:31:35;;;;;;;4.47;1.40;;;5.90;99.90;;;;;;5008269;28;20207;-83
2021/04/10 04:34:02;;;;;;;5.00;1.20;;;5.90;99.90;;;;;;5009651;28;20574;-84
2021/04/10 04:36:28;;;;;;;3.07;1.30;;;5.90;99.90;;;;;;5008877;28;20203;-82
2021/04/10 04:38:54;;;;;;;1.23;0.80;;;6.00;99.90;;;;;;5008549;28;20926;-83
2021/04/10 04:41:21;;;;;;;4.80;1.03;;;6.00;99.90;;;;;;5008027;28;20203;-83
2021/04/10 04:43:47;;;;;;;3.40;0.80;;;6.00;99.90;;;;;;5008854;28;20538;-83
2021/04/10 04:46:14;;;;;;;5.37;1.60;;;5.90;99.90;;;;;;5005454;28;20219;-82
2021/04/10 04:48:40;;;;;;;4.73;1.07;;;6.00;99.90;;;;;;4988669;28;20211;-84
2021/04/10 04:51:07;;;;;;;5.10;1.43;;;6.00;99.90;;;;;;4999026;28;20225;-83
2021/04/10 04:53:33;;;;;;;3.47;1.20;;;6.10;99.90;;;;;;5006633;28;20226;-85
2021/04/10 04:56:00;;;;;;;5.87;1.00;;;6.00;99.90;;;;;;5007953;28;20207;-83
2021/04/10 04:58:26;;;;;;;3.67;1.30;;;6.00;99.90;;;;;;5009315;28;20211;-84
2021/04/10 05:00:53;;;;;;;4.50;1.50;;;5.90;99.90;;;;;;5008247;28;20387;-83
2021/04/10 05:03:19;;;;;;;5.70;1.23;;;6.10;99.90;;;;;;5008882;28;20202;-82
2021/04/10 05:05:45;;;;;;;4.60;1.37;;;6.10;99.90;;;;;;5007924;28;20211;-82
2021/04/10 05:08:13;;;;;;;5.33;1.13;;;6.10;99.90;;;;;;4994751;28;20934;-82
2021/04/10 05:10:39;;;;;;;7.77;1.80;;;6.00;99.90;;;;;;5005781;28;20290;-83
2021/04/10 05:13:06;;;;;;;5.90;2.10;;;6.00;99.90;;;;;;5006304;28;20207;-82
2021/04/10 05:15:32;;;;;;;6.37;1.57;;;6.00;99.90;;;;;;5006264;28;20211;-83
2021/04/10 05:17:58;;;;;;;6.50;2.17;;;6.10;99.90;;;;;;5006203;28;20203;-83
2021/04/10 05:20:25;;;;;;;6.07;1.93;;;6.10;99.90;;;;;;5006136;28;20251;-84
2021/04/10 05:22:54;;;;;;;9.27;1.83;;;6.10;99.90;;;;;;5004641;28;20261;-82
2021/04/10 05:25:22;;;;;;;3.23;1.60;;;6.00;99.90;;;;;;5004267;28;20618;-80
2021/04/10 05:27:49;;;;;;;7.57;2.03;;;6.00;99.90;;;;;;5005148;28;20215;-85
2021/04/10 05:30:16;;;;;;;8.87;2.20;;;6.00;99.90;;;;;;5005490;28;20199;-84
2021/04/10 05:32:43;;;;;;;7.93;2.10;;;6.00;99.90;;;;;;5005132;28;20203;-84
2021/04/10 05:35:10;;;;;;;8.63;2.43;;;6.00;99.90;;;;;;5005976;28;20227;-81
2021/04/10 05:37:36;;;;;;;8.23;2.13;;;6.00;99.90;;;;;;5004643;28;20204;-82
2021/04/10 05:40:04;;;;;;;8.33;2.00;;;6.10;99.90;;;;;;5005311;28;20227;-82
2021/04/10 05:42:31;;;;;;;8.30;2.30;;;6.10;99.90;;;;;;5005781;28;20203;-84
2021/04/10 05:44:57;;;;;;;11.97;2.10;;;6.10;99.90;;;;;;5005369;28;20207;-82
2021/04/10 05:47:24;;;;;;;6.60;1.80;;;6.10;99.90;;;;;;5005505;28;20212;-83
2021/04/10 05:49:50;;;;;;;6.70;2.70;;;6.20;99.90;;;;;;5005620;28;20207;-83
2021/04/10 05:52:16;;;;;;;6.90;2.23;;;6.20;99.90;;;;;;5007414;28;20604;-84
2021/04/10 05:54:43;;;;;;;12.60;3.33;;;6.20;99.90;;;;;;4993363;28;20638;-79
2021/04/10 05:57:09;;;;;;;8.10;3.00;;;6.20;99.90;;;;;;4987897;28;20204;-82
2021/04/10 05:59:36;;;;;;;9.20;2.13;;;6.30;99.90;;;;;;5003233;28;20223;-83
2021/04/10 06:02:05;;;;;;;8.23;2.10;;;6.20;99.90;;;;;;5009032;28;20214;-83
2021/04/10 06:04:32;;;;;;;11.37;2.63;;;6.20;99.90;;;;;;5007977;28;20222;-83
2021/04/10 06:06:58;;;;;;;6.90;2.00;;;6.20;99.90;;;;;;5003739;28;20603;-80
2021/04/10 06:09:25;;;;;;;11.43;2.60;;;6.20;99.90;;;;;;4985090;28;20682;-83
2021/04/10 06:11:51;;;;;;;10.30;1.83;;;6.30;99.90;;;;;;5000563;28;20219;-83
2021/04/10 06:14:18;;;;;;;13.83;2.80;;;6.30;99.90;;;;;;5005476;28;20203;-80
2021/04/10 06:16:45;;;;;;;9.23;2.13;;;6.20;99.90;;;;;;5006176;28;20238;-81
2021/04/10 06:19:12;;;;;;;10.87;3.33;;;6.30;99.90;;;;;;5009116;28;20358;-84
2021/04/10 06:21:38;;;;;;;7.53;2.50;;;6.30;99.90;;;;;;5010264;28;20215;-84
2021/04/10 06:24:05;;;;;;;9.83;2.83;;;6.40;99.90;;;;;;5008724;28;20219;-79
2021/04/10 06:26:31;;;;;;;7.17;2.27;;;6.50;99.90;;;;;;5009366;28;20207;-80
2021/04/10 06:28:57;;;;;;;9.67;2.13;;;6.50;99.90;;;;;;5009202;28;20234;-83
2021/04/10 06:31:23;;;;;;;7.67;1.90;;;6.40;99.90;;;;;;5008707;28;20242;-84
2021/04/10 06:33:50;;;;;;;9.13;2.93;;;6.50;99.90;;;;;;5009269;28;20658;-81
2021/04/10 06:36:17;;;;;;;7.43;2.27;;;6.60;99.90;;;;;;5008308;28;20210;-82
2021/04/10 06:38:43;;;;;;;10.40;2.50;;;6.50;99.90;;;;;;4996181;28;20544;-83
2021/04/10 06:41:12;;;;;;;10.90;2.30;;;6.60;99.90;;;;;;4987809;28;20219;-81
2021/04/10 06:43:41;;;;;;;8.03;2.30;;;6.70;99.90;;;;;;5005722;28;20230;-80
2021/04/10 06:46:09;;;;;;;8.20;1.93;;;6.70;99.90;;;;;;5007217;28;20199;-81
2021/04/10 06:48:38;;;;;;;6.03;2.03;;;6.90;99.90;;;;;;5005934;28;20278;-80
2021/04/10 06:51:05;;;;;;;12.30;2.83;;;6.90;99.90;;;;;;5007732;28;20611;-81
2021/04/10 06:53:33;;;;;;;9.73;3.00;;;7.00;99.90;;;;;;5009092;28;20238;-81
2021/04/10 06:56:03;;;;;;;6.90;2.50;;;7.00;99.90;;;;;;5008001;28;20215;-83
2021/04/10 06:58:36;;;;;;;9.53;2.27;;;7.20;99.90;;;;;;5007167;28;20925;-80
2021/04/10 07:01:03;;;;;;;8.40;2.73;;;7.20;99.90;;;;;;5008647;28;20237;-81
2021/04/10 07:03:29;;;;;;;14.03;2.90;;;7.10;99.90;;;;;;5009064;28;20710;-81
2021/04/10 07:05:56;;;;;;;12.20;3.60;;;7.10;99.90;;;;;;5008017;28;20218;-83
2021/04/10 07:08:23;;;;;;;12.23;2.77;;;7.10;99.90;;;;;;5007293;28;20611;-83
2021/04/10 07:10:53;;;;;;;8.57;2.20;;;7.10;99.90;;;;;;4989656;28;20317;-83
2021/04/10 07:13:19;;;;;;;9.20;2.43;;;7.10;99.90;;;;;;5007456;28;20215;-82
2021/04/10 07:15:46;;;;;;;9.67;2.60;;;7.20;99.90;;;;;;5009247;28;20514;-84
2021/04/10 07:18:13;;;;;;;13.37;2.90;;;7.10;99.90;;;;;;5005669;28;20243;-82
2021/04/10 07:20:40;;;;;;;8.67;2.40;;;7.20;99.90;;;;;;5006348;28;20234;-81
2021/04/10 07:23:07;;;;;;;8.27;2.40;;;7.20;99.90;;;;;;5007083;28;20650;-83
2021/04/10 07:25:37;;;;;;;10.77;2.43;;;7.20;99.90;;;;;;5003046;28;20203;-82
2021/04/10 07:28:25;;;;;;;13.83;3.03;;;7.20;99.90;;;;;;5005536;28;20211;-80
2021/04/10 07:30:58;;;;;;;11.13;1.93;;;7.20;99.90;;;;;;5006301;28;20207;-83
2021/04/10 07:33:25;;;;;;;5.70;2.20;;;7.30;99.90;;;;;;5006844;28;20311;-82
2021/04/10 07:35:51;;;;;;;7.73;2.60;;;7.20;99.90;;;;;;5007400;28;20349;-83
2021/04/10 07:38:29;;;;;;;12.20;1.97;;;7.30;99.90;;;;;;5007582;28;20215;-82
2021/04/10 07:40:56;;;;;;;6.43;1.90;;;7.20;99.90;;;;;;5006482;28;20282;-84
2021/04/10 07:43:24;;;;;;;8.57;1.70;;;7.30;99.90;;;;;;5007306;28;20226;-82
2021/04/10 07:45:50;;;;;;;6.67;2.23;;;7.30;99.90;;;;;;5005664;28;20210;-83
2021/04/10 07:48:19;;;;;;;7.10;1.97;;;7.30;99.90;;;;;;5006176;28;20219;-82
2021/04/10 07:50:46;;;;;;;8.03;2.90;;;7.40;99.90;;;;;;5005902;28;20221;-81
2021/04/10 07:53:20;;;;;;;9.60;2.10;;;7.40;99.90;;;;;;5003350;28;20290;-81
2021/04/10 07:55:47;;;;;;;6.57;1.67;;;7.50;99.90;;;;;;5004294;28;20202;-82
2021/04/10 07:58:29;;;;;;;4.70;1.80;;;7.60;99.90;;;;;;5003429;28;20210;-83
2021/04/10 08:00:58;;;;;;;7.40;2.30;;;7.50;99.90;;;;;;5003883;28;20702;-81
2021/04/10 08:03:29;;;;;;;8.50;2.23;;;7.50;99.90;;;;;;5004557;28;20238;-81
2021/04/10 08:05:55;;;;;;;9.03;2.07;;;7.40;99.90;;;;;;5003298;28;20212;-81
2021/04/10 08:08:23;;;;;;;12.23;2.00;;;7.40;99.90;;;;;;5003638;28;20682;-81
2021/04/10 08:10:58;;;;;;;5.50;1.60;;;7.40;99.90;;;;;;4986030;28;20206;-81
2021/04/10 08:13:24;;;;;;;13.17;2.50;;;7.40;99.90;;;;;;5002486;28;20256;-81
2021/04/10 08:16:13;;;;;;;12.43;1.83;;;7.40;99.90;;;;;;5004825;28;20215;-82
2021/04/10 08:18:44;;;;;;;8.83;2.00;;;7.50;99.90;;;;;;4984808;28;20196;-83
2021/04/10 08:21:11;;;;;;;8.60;2.10;;;7.40;99.90;;;;;;4984785;28;20347;-80
2021/04/10 08:23:37;;;;;;;6.77;1.57;;;7.40;99.90;;;;;;5003162;28;20218;-80
2021/04/10 08:26:04;;;;;;;6.67;2.33;;;7.50;99.90;;;;;;5005189;28;20282;-81
2021/04/10 08:28:30;;;;;;;5.93;2.27;;;7.50;99.90;;;;;;5003829;28;20221;-80
2021/04/10 08:30:58;;;;;;;7.33;1.97;;;7.50;99.90;;;;;;5005003;28;20207;-84
2021/04/10 08:33:26;;;;;;;14.27;2.17;;;7.60;99.90;;;;;;5004881;28;20928;-83
2021/04/10 08:35:54;;;;;;;10.63;2.23;;;7.60;99.90;;;;;;5005696;28;20206;-81
2021/04/10 08:38:23;;;;;;;7.47;2.17;;;7.50;99.90;;;;;;5006437;28;20611;-83
2021/04/10 08:40:52;;;;;;;5.57;1.77;;;7.60;99.90;;;;;;5006089;28;20578;-80
2021/04/10 08:43:20;;;;;;;7.07;1.83;;;7.60;99.90;;;;;;4991937;28;20259;-80
2021/04/10 08:45:51;;;;;;;10.93;1.83;;;7.60;99.90;;;;;;4986497;28;20230;-81
2021/04/10 08:48:20;;;;;;;5.40;1.77;;;7.70;99.90;;;;;;4986378;28;20231;-82
2021/04/10 08:50:50;;;;;;;7.53;1.87;;;7.70;99.90;;;;;;4984367;28;20204;-81
2021/04/10 08:53:22;;;;;;;12.07;2.10;;;7.60;99.90;;;;;;4985643;28;20732;-82
2021/04/10 08:55:50;;;;;;;7.90;2.77;;;7.60;99.90;;;;;;4986098;28;20208;-81
2021/04/10 08:58:21;;;;;;;8.57;1.83;;;7.70;99.90;;;;;;4986159;28;20206;-83
2021/04/10 09:00:54;;;;;;;5.90;2.30;;;7.70;99.90;;;;;;5001085;28;20970;-81
2021/04/10 09:03:20;;;;;;;9.20;2.53;;;7.70;99.90;;;;;;5005639;28;20207;-81
2021/04/10 09:05:48;;;;;;;9.40;2.63;;;7.70;99.90;;;;;;5006182;28;20210;-83
2021/04/10 09:08:25;;;;;;;6.63;2.13;;;7.70;99.90;;;;;;5004702;28;20591;-83
2021/04/10 09:10:59;;;;;;;7.13;1.93;;;7.70;99.90;;;;;;5005415;28;20242;-82
2021/04/10 09:13:31;;;;;;;9.47;2.03;;;7.70;99.90;;;;;;5005809;23;20245;-80
2021/04/10 09:16:27;;;;;;;5.23;1.57;;;7.70;99.90;;;;;;5025352;28;20230;-80
2021/04/10 09:18:57;;;;;;;10.87;3.10;;;7.70;99.90;;;;;;5017239;28;20216;-80
2021/04/10 09:21:44;;;;;;;8.97;2.27;;;7.70;99.90;;;;;;5006587;28;20936;-82
2021/04/10 09:24:32;;;;;;;10.57;2.70;;;7.60;99.90;;;;;;5006353;28;20274;-82
2021/04/10 09:27:04;;;;;;;6.97;1.83;;;7.50;99.90;;;;;;5002315;28;20214;-82
2021/04/10 09:29:41;;;;;;;7.83;2.77;;;7.50;99.90;;;;;;5006775;28;20198;-80
2021/04/10 09:32:08;;;;;;;9.40;1.83;;;7.50;99.90;;;;;;5006941;28;20209;-80
2021/04/10 09:34:55;;;;;;;18.97;2.20;;;7.40;99.90;;;;;;5006185;28;20230;-83
2021/04/10 09:37:55;;;;;;;7.07;1.50;;;7.50;99.90;;;;;;5006409;28;20253;-82
2021/04/10 09:40:38;;;;;;;10.30;2.17;;;7.50;99.90;;;;;;5005058;28;20289;-80
2021/04/10 09:43:06;;;;;;;9.03;2.03;;;7.50;99.90;;;;;;5001177;28;20229;-81
2021/04/10 09:45:36;;;;;;;13.90;2.40;;;7.50;99.90;;;;;;5003206;28;20281;-81
2021/04/10 09:48:28;;;;;;;8.33;2.20;;;7.60;99.90;;;;;;5001986;28;20203;-82
2021/04/10 09:51:13;;;;;;;4.27;1.90;;;7.60;99.90;;;;;;4987638;28;20231;-82
2021/04/10 09:53:50;;;;;;;10.60;2.73;;;7.60;99.90;;;;;;5006544;28;20298;-82
2021/04/10 09:56:17;;;;;;;9.33;3.23;;;7.60;99.90;;;;;;5009301;28;20221;-83
2021/04/10 09:58:53;;;;;;;5.73;2.00;;;7.60;99.90;;;;;;5008427;28;20231;-81
2021/04/10 10:01:21;;;;;;;7.83;1.80;;;7.70;99.90;;;;;;5008217;28;20230;-85
2021/04/10 10:03:49;;;;;;;10.90;2.27;;;7.60;99.90;;;;;;5008309;28;20212;-81
2021/04/10 10:06:24;;;;;;;6.83;1.60;;;7.60;99.90;;;;;;5008573;28;20740;-83
2021/04/10 10:08:52;;;;;;;8.70;1.80;;;7.60;99.90;;;;;;5009139;28;20267;-82
2021/04/10 10:11:19;;;;;;;8.03;2.67;;;7.70;99.90;;;;;;5008865;28;20280;-80
2021/04/10 10:13:46;;;;;;;6.30;1.87;;;7.70;99.90;;;;;;5007271;28;20239;-79
2021/04/10 10:16:12;;;;;;;10.93;3.07;;;7.70;99.90;;;;;;5014287;28;20218;-81
2021/04/10 10:18:41;;;;;;;9.13;2.33;;;7.70;99.90;;;;;;5026927;28;20210;-81
2021/04/10 10:21:10;;;;;;;5.43;1.80;;;7.60;99.90;;;;;;5027217;28;20323;-82
2021/04/10 10:23:39;;;;;;;6.10;1.97;;;7.70;99.90;;;;;;5023192;28;20204;-81
2021/04/10 10:26:10;;;;;;;10.10;2.17;;;7.70;99.90;;;;;;5007867;28;20423;-81
2021/04/10 10:28:38;;;;;;;9.87;2.37;;;7.70;99.90;;;;;;5008608;28;20211;-81
2021/04/10 10:31:09;;;;;;;10.67;2.60;;;7.70;99.90;;;;;;5007513;28;20548;-82
2021/04/10 10:33:36;;;;;;;6.60;1.90;;;7.70;99.90;;;;;;5006329;28;20238;-83
2021/04/10 10:36:03;;;;;;;12.20;2.40;;;7.70;99.90;;;;;;5005724;28;20269;-81
2021/04/10 10:38:31;;;;;;;7.37;1.90;;;7.70;99.90;;;;;;5003434;28;20673;-80
2021/04/10 10:40:58;;;;;;;9.53;2.20;;;7.70;99.90;;;;;;5003905;28;20274;-80
2021/04/10 10:43:26;;;;;;;9.80;1.93;;;7.70;99.90;;;;;;5004203;28;20210;-78
2021/04/10 10:45:53;;;;;;;7.10;2.20;;;7.80;99.90;;;;;;5005690;28;20214;-80
2021/04/10 10:48:22;;;;;;;6.97;2.27;;;7.70;99.90;;;;;;5005203;28;20298;-82
2021/04/10 10:50:50;;;;;;;9.27;2.43;;;7.80;99.90;;;;;;5004670;28;20211;-80
2021/04/10 10:53:18;;;;;;;9.27;2.30;;;7.90;99.90;;;;;;5005011;28;20226;-79
2021/04/10 10:55:59;;;;;;;6.97;2.00;;;7.80;99.90;;;;;;5005124;28;20214;-80
2021/04/10 10:58:31;;;;;;;5.57;2.57;;;7.90;99.90;;;;;;5005302;28;20211;-79
2021/04/10 11:00:59;;;;;;;8.70;2.23;;;8.00;99.90;;;;;;5005750;28;20226;-79
2021/04/10 11:03:26;;;;;;;12.97;3.23;;;7.90;99.90;;;;;;5005374;28;20210;-80
2021/04/10 11:05:54;;;;;;;11.27;3.07;;;7.90;99.90;;;;;;5004460;28;20214;-80
2021/04/10 11:08:22;;;;;;;9.20;3.77;;;7.90;99.90;;;;;;5017958;28;20207;-83
2021/04/10 11:10:52;;;;;;;8.97;2.00;;;8.00;99.90;;;;;;5023322;28;20226;-80
2021/04/10 11:13:19;;;;;;;8.03;2.10;;;8.00;99.90;;;;;;5023983;28;20243;-79
2021/04/10 11:15:47;;;;;;;15.87;3.40;;;8.00;99.90;;;;;;5006329;28;20215;-80
2021/04/10 11:18:30;;;;;;;8.33;2.20;;;8.00;99.90;;;;;;5005783;28;20210;-82
2021/04/10 11:21:18;;;;;;;8.30;2.57;;;8.00;99.90;;;;;;5004600;28;20242;-80
2021/04/10 11:24:13;;;;;;;9.50;2.93;;;7.90;99.90;;;;;;5002575;28;20219;-80
2021/04/10 11:26:46;;;;;;;9.13;2.27;;;7.90;99.90;;;;;;5003125;28;20318;-80
2021/04/10 11:29:29;;;;;;;9.70;2.10;;;8.00;99.90;;;;;;5003758;28;20202;-80
2021/04/10 11:32:20;;;;;;;7.93;2.70;;;8.00;99.90;;;;;;5003509;28;20211;-80
2021/04/10 11:35:05;;;;;;;7.00;2.40;;;8.00;99.90;;;;;;5003322;28;20229;-80
2021/04/10 11:37:43;;;;;;;8.63;2.10;;;7.80;99.90;;;;;;5002341;28;20203;-79
2021/04/10 11:40:11;;;;;;;9.77;2.47;;;7.80;99.90;;;;;;5003440;28;20227;-80
2021/04/10 11:42:41;;;;;;;8.63;2.03;;;7.70;99.90;;;;;;5006301;28;20209;-79
2021/04/10 11:45:10;;;;;;;7.03;2.23;;;7.80;99.90;;;;;;5022552;28;20206;-80
2021/04/10 11:47:39;;;;;;;5.63;2.10;;;7.80;99.90;;;;;;5008634;28;20222;-80
2021/04/10 11:50:07;;;;;;;5.30;2.10;;;7.80;99.90;;;;;;5004026;28;20495;-79
2021/04/10 11:52:34;;;;;;;7.37;1.80;;;7.80;99.90;;;;;;5022339;28;20207;-80
2021/04/10 11:55:05;;;;;;;7.87;2.17;;;7.90;99.90;;;;;;5021840;28;20352;-79
2021/04/10 11:57:33;;;;;;;8.17;2.03;;;7.90;99.90;;;;;;5021908;28;20194;-79
2021/04/10 12:00:02;;;;;;;6.87;2.70;;;8.00;99.90;;;;;;5017756;28;20227;-80
2021/04/10 12:02:33;;;;;;;7.57;2.57;;;8.10;99.90;;;;;;5000770;28;20218;-80
2021/04/10 12:05:18;;;;;;;8.10;1.70;;;8.10;99.90;;;;;;5000606;28;20571;-80
2021/04/10 12:08:03;;;;;;;7.97;2.10;;;8.30;99.90;;;;;;5009541;28;20206;-79
2021/04/10 12:10:29;;;;;;;8.63;2.43;;;8.30;99.90;;;;;;5022448;28;20194;-78
2021/04/10 12:12:56;;;;;;;10.17;2.73;;;8.30;99.90;;;;;;4999701;28;593434;-79
2021/04/10 12:15:25;;;;;;;5.00;2.23;;;8.30;99.90;;;;;;5003708;28;20195;-79
2021/04/10 12:17:51;;;;;;;10.63;3.17;;;8.30;99.90;;;;;;5002801;28;20473;-81
2021/04/10 12:20:20;;;;;;;8.83;2.57;;;8.20;99.90;;;;;;5001166;28;20227;-80
2021/04/10 12:22:46;;;;;;;7.43;2.50;;;8.20;99.90;;;;;;5010294;28;20207;-82
2021/04/10 12:25:13;;;;;;;6.13;2.73;;;8.10;99.90;;;;;;5023553;28;20202;-80
2021/04/10 12:27:39;;;;;;;7.37;2.60;;;8.20;99.90;;;;;;5021988;28;20502;-82
2021/04/10 12:30:09;;;;;;;9.27;2.40;;;8.20;99.90;;;;;;5019180;28;20603;-82
2021/04/10 12:32:35;;;;;;;6.17;2.03;;;8.20;99.90;;;;;;5002953;28;20207;-79
2021/04/10 12:35:02;;;;;;;8.93;2.60;;;8.20;99.90;;;;;;5003074;28;20634;-82
2021/04/10 12:37:29;;;;;;;6.87;2.37;;;8.30;99.90;;;;;;5003627;28;20881;-79
2021/04/10 12:39:55;;;;;;;9.33;2.60;;;8.40;99.90;;;;;;5014227;28;20233;-79
2021/04/10 12:42:22;;;;;;;10.97;1.97;;;8.30;99.90;;;;;;5024771;28;20210;-80
2021/04/10 12:44:48;;;;;;;8.57;2.60;;;8.30;99.90;;;;;;5008923;28;20222;-80
2021/04/10 12:47:15;;;;;;;11.90;2.80;;;8.30;99.90;;;;;;5003561;28;20206;-81
2021/04/10 12:49:42;;;;;;;7.40;2.43;;;8.30;99.90;;;;;;5004475;28;20195;-81
2021/04/10 12:52:08;;;;;;;6.50;2.40;;;8.40;99.90;;;;;;5004050;28;20289;-82
2021/04/10 12:54:35;;;;;;;8.27;2.60;;;8.40;99.90;;;;;;5003113;28;20211;-81
2021/04/10 12:57:01;;;;;;;8.00;2.40;;;8.40;99.90;;;;;;5001837;28;20203;-79
2021/04/10 12:59:28;;;;;;;6.40;2.07;;;8.30;99.90;;;;;;5001616;28;20298;-80
2021/04/10 13:01:56;;;;;;;8.73;4.10;;;8.30;99.90;;;;;;5001456;28;20242;-82
2021/04/10 13:04:23;;;;;;;10.30;2.73;;;8.30;99.90;;;;;;5002525;28;20203;-78
2021/04/10 13:06:50;;;;;;;5.27;2.27;;;8.20;99.90;;;;;;5003505;28;20289;-79